Weather at Etting-Adelmannsberg Glider Field

Public forecast

Using degrees Celsius for public forecast. Weather courtesy of forecast.io.

Closest aviation weather report (METAR) to Etting-Adelmannsberg Glider Field

Closest report is Ingolstadt Manching Airport, 7.2 nm (13.4 km) SE. Retrieved 2022/08/15 19:20 UTC (4 minutes ago):

ETSI 151920Z AUTO 27007KT 5000 // ////// 21/11 Q1009 ///

Closest aviation forecast (TAF) to Etting-Adelmannsberg Glider Field

Forecast is more than 12 hours old.

Closest forecast is Ingolstadt Manching Airport, 7.2 nm (13.4 km) SE. Retrieved 2022/05/09 14:27 UTC (3 months ago):

TAF ETSI 091315Z 0914/1013 CNL 1315